< < Back
Terminal Aerodrome Forecast


Current Version              Previous Versions:   1  2  3  4  5  6  7  8  9  

Terminal Aerodrome Forecast

148
FTUS42 KJAX 010524
TAFGNV
TAF
KGNV 010524Z 0106/0206 02007KT 3SM -RA BR OVC003
     FM011000 03005KT 2SM -DZ BR OVC002
     FM011800 09005KT 4SM BR OVC007
     FM012100 11005KT P6SM BKN025=

Latest METAR

110
SAUS70 KWBC 010600 RRX
MTRGNV
METAR KGNV 010553Z AUTO 01006KT 8SM -RA BKN004 OVC016 11/11 A3041 RMK
AO2 RAE29B52 SLP296 P0002 60007 T01060106 10117 20106
55008


USA.gov is the U.S. government's official web portal to all federal, state and local government web resources and services.